sensor_id;sensor_type;location;lat;lon;timestamp;P1;durP1;ratioP1;P2;durP2;ratioP2
63286;SDS011;49410;55.708;37.522;2023-02-28T00:02:15;9.88;;;3.60;;
63286;SDS011;49410;55.708;37.522;2023-02-28T00:04:42;11.13;;;3.65;;
63286;SDS011;49410;55.708;37.522;2023-02-28T00:07:09;9.25;;;3.22;;
63286;SDS011;49410;55.708;37.522;2023-02-28T00:09:34;11.35;;;3.75;;
63286;SDS011;49410;55.708;37.522;2023-02-28T00:12:00;9.98;;;3.70;;
63286;SDS011;49410;55.708;37.522;2023-02-28T00:14:38;11.50;;;4.40;;
63286;SDS011;49410;55.708;37.522;2023-02-28T00:20:00;11.00;;;4.10;;
63286;SDS011;49410;55.708;37.522;2023-02-28T00:22:29;13.40;;;5.30;;
63286;SDS011;49410;55.708;37.522;2023-02-28T00:27:21;10.70;;;4.65;;
63286;SDS011;49410;55.708;37.522;2023-02-28T00:29:46;13.90;;;4.90;;
63286;SDS011;49410;55.708;37.522;2023-02-28T00:32:12;12.20;;;4.55;;
63286;SDS011;49410;55.708;37.522;2023-02-28T00:34:37;11.57;;;4.00;;
63286;SDS011;49410;55.708;37.522;2023-02-28T00:37:04;13.00;;;4.88;;
63286;SDS011;49410;55.708;37.522;2023-02-28T00:39:30;12.75;;;4.30;;
63286;SDS011;49410;55.708;37.522;2023-02-28T00:41:56;11.43;;;4.78;;
63286;SDS011;49410;55.708;37.522;2023-02-28T00:44:25;8.77;;;3.88;;
63286;SDS011;49410;55.708;37.522;2023-02-28T00:46:50;10.13;;;4.18;;
63286;SDS011;49410;55.708;37.522;2023-02-28T00:49:16;9.25;;;3.60;;
63286;SDS011;49410;55.708;37.522;2023-02-28T00:51:45;9.30;;;3.55;;
63286;SDS011;49410;55.708;37.522;2023-02-28T00:54:11;10.68;;;4.07;;
63286;SDS011;49410;55.708;37.522;2023-02-28T00:56:37;10.25;;;3.72;;
63286;SDS011;49410;55.708;37.522;2023-02-28T00:59:03;10.60;;;3.65;;
63286;SDS011;49410;55.708;37.522;2023-02-28T01:01:28;8.60;;;3.42;;
63286;SDS011;49410;55.708;37.522;2023-02-28T01:03:54;9.20;;;3.50;;
63286;SDS011;49410;55.708;37.522;2023-02-28T01:06:19;8.27;;;3.05;;
63286;SDS011;49410;55.708;37.522;2023-02-28T01:08:45;11.00;;;3.75;;
63286;SDS011;49410;55.708;37.522;2023-02-28T01:11:11;7.97;;;2.80;;
63286;SDS011;49410;55.708;37.522;2023-02-28T01:13:39;9.73;;;3.35;;
63286;SDS011;49410;55.708;37.522;2023-02-28T01:16:06;9.85;;;3.45;;
63286;SDS011;49410;55.708;37.522;2023-02-28T01:18:32;9.07;;;3.50;;
63286;SDS011;49410;55.708;37.522;2023-02-28T01:20:57;9.60;;;3.50;;
63286;SDS011;49410;55.708;37.522;2023-02-28T01:23:23;8.65;;;3.70;;
63286;SDS011;49410;55.708;37.522;2023-02-28T01:25:49;10.32;;;3.42;;
63286;SDS011;49410;55.708;37.522;2023-02-28T01:28:15;8.82;;;3.90;;
63286;SDS011;49410;55.708;37.522;2023-02-28T01:30:41;9.27;;;3.50;;
63286;SDS011;49410;55.708;37.522;2023-02-28T01:33:06;7.63;;;3.08;;
63286;SDS011;49410;55.708;37.522;2023-02-28T01:35:33;10.50;;;3.33;;
63286;SDS011;49410;55.708;37.522;2023-02-28T01:37:59;9.70;;;3.58;;
63286;SDS011;49410;55.708;37.522;2023-02-28T01:40:24;8.65;;;3.40;;
63286;SDS011;49410;55.708;37.522;2023-02-28T01:42:50;10.32;;;3.13;;
63286;SDS011;49410;55.708;37.522;2023-02-28T01:45:31;9.82;;;3.40;;
63286;SDS011;49410;55.708;37.522;2023-02-28T01:48:03;8.70;;;3.00;;
63286;SDS011;49410;55.708;37.522;2023-02-28T01:50:34;6.80;;;2.30;;
63286;SDS011;49410;55.708;37.522;2023-02-28T01:53:05;8.55;;;2.85;;
63286;SDS011;49410;55.708;37.522;2023-02-28T01:55:34;7.05;;;3.08;;
63286;SDS011;49410;55.708;37.522;2023-02-28T01:58:01;10.85;;;3.25;;
63286;SDS011;49410;55.708;37.522;2023-02-28T02:00:29;8.70;;;3.10;;
63286;SDS011;49410;55.708;37.522;2023-02-28T02:02:56;8.07;;;3.25;;
63286;SDS011;49410;55.708;37.522;2023-02-28T02:05:25;8.25;;;3.50;;
63286;SDS011;49410;55.708;37.522;2023-02-28T02:07:57;12.13;;;3.83;;
63286;SDS011;49410;55.708;37.522;2023-02-28T02:16:20;12.10;;;3.70;;
63286;SDS011;49410;55.708;37.522;2023-02-28T02:22:21;7.60;;;2.92;;
63286;SDS011;49410;55.708;37.522;2023-02-28T02:36:02;10.50;;;3.58;;
63286;SDS011;49410;55.708;37.522;2023-02-28T02:44:02;8.82;;;3.38;;
63286;SDS011;49410;55.708;37.522;2023-02-28T02:46:45;8.25;;;3.15;;
63286;SDS011;49410;55.708;37.522;2023-02-28T02:49:16;10.07;;;4.00;;
63286;SDS011;49410;55.708;37.522;2023-02-28T02:51:46;9.43;;;3.30;;
63286;SDS011;49410;55.708;37.522;2023-02-28T02:54:17;6.95;;;3.17;;
63286;SDS011;49410;55.708;37.522;2023-02-28T02:56:48;8.13;;;3.40;;
63286;SDS011;49410;55.708;37.522;2023-02-28T02:59:16;9.63;;;3.40;;
63286;SDS011;49410;55.708;37.522;2023-02-28T03:01:46;9.18;;;3.33;;
63286;SDS011;49410;55.708;37.522;2023-02-28T03:04:22;10.63;;;3.92;;
63286;SDS011;49410;55.708;37.522;2023-02-28T03:06:50;10.18;;;3.17;;
63286;SDS011;49410;55.708;37.522;2023-02-28T03:09:23;7.22;;;2.45;;
63286;SDS011;49410;55.708;37.522;2023-02-28T03:11:49;9.45;;;3.45;;
63286;SDS011;49410;55.708;37.522;2023-02-28T03:19:55;8.05;;;3.05;;
63286;SDS011;49410;55.708;37.522;2023-02-28T03:27:49;7.05;;;2.47;;
63286;SDS011;49410;55.708;37.522;2023-02-28T03:30:22;4.70;;;1.75;;
63286;SDS011;49410;55.708;37.522;2023-02-28T03:35:32;12.05;;;3.60;;
63286;SDS011;49410;55.708;37.522;2023-02-28T03:38:06;6.68;;;2.30;;
63286;SDS011;49410;55.708;37.522;2023-02-28T03:40:39;6.28;;;2.53;;
63286;SDS011;49410;55.708;37.522;2023-02-28T03:43:10;8.40;;;2.38;;
63286;SDS011;49410;55.708;37.522;2023-02-28T03:45:40;6.53;;;2.03;;
63286;SDS011;49410;55.708;37.522;2023-02-28T03:48:08;7.97;;;2.45;;
63286;SDS011;49410;55.708;37.522;2023-02-28T03:50:46;7.88;;;3.10;;
63286;SDS011;49410;55.708;37.522;2023-02-28T03:53:25;6.60;;;2.20;;
63286;SDS011;49410;55.708;37.522;2023-02-28T03:58:59;7.75;;;3.08;;
63286;SDS011;49410;55.708;37.522;2023-02-28T04:01:45;5.70;;;1.92;;
63286;SDS011;49410;55.708;37.522;2023-02-28T04:04:13;7.78;;;3.05;;
63286;SDS011;49410;55.708;37.522;2023-02-28T04:06:40;8.63;;;2.85;;
63286;SDS011;49410;55.708;37.522;2023-02-28T04:11:34;6.88;;;2.42;;
63286;SDS011;49410;55.708;37.522;2023-02-28T04:14:01;6.28;;;2.60;;
63286;SDS011;49410;55.708;37.522;2023-02-28T04:16:30;6.10;;;2.38;;
63286;SDS011;49410;55.708;37.522;2023-02-28T04:18:57;6.15;;;2.42;;
63286;SDS011;49410;55.708;37.522;2023-02-28T04:21:32;6.15;;;2.50;;
63286;SDS011;49410;55.708;37.522;2023-02-28T04:23:59;7.45;;;2.65;;
63286;SDS011;49410;55.708;37.522;2023-02-28T04:26:35;3.85;;;1.42;;
63286;SDS011;49410;55.708;37.522;2023-02-28T04:29:02;5.22;;;2.40;;
63286;SDS011;49410;55.708;37.522;2023-02-28T04:31:29;5.80;;;2.47;;
63286;SDS011;49410;55.708;37.522;2023-02-28T04:33:54;5.18;;;2.30;;
63286;SDS011;49410;55.708;37.522;2023-02-28T04:36:20;5.35;;;2.00;;
63286;SDS011;49410;55.708;37.522;2023-02-28T04:38:48;6.50;;;2.15;;
63286;SDS011;49410;55.708;37.522;2023-02-28T04:41:13;7.82;;;2.45;;
63286;SDS011;49410;55.708;37.522;2023-02-28T04:43:39;5.47;;;2.15;;
63286;SDS011;49410;55.708;37.522;2023-02-28T04:46:05;9.60;;;2.60;;
63286;SDS011;49410;55.708;37.522;2023-02-28T04:48:32;8.43;;;2.80;;
63286;SDS011;49410;55.708;37.522;2023-02-28T04:51:03;8.20;;;2.83;;
63286;SDS011;49410;55.708;37.522;2023-02-28T04:53:30;8.32;;;2.78;;
63286;SDS011;49410;55.708;37.522;2023-02-28T04:55:56;7.72;;;2.67;;
63286;SDS011;49410;55.708;37.522;2023-02-28T04:58:23;7.75;;;2.83;;
63286;SDS011;49410;55.708;37.522;2023-02-28T05:00:49;5.85;;;2.08;;
63286;SDS011;49410;55.708;37.522;2023-02-28T05:03:15;7.10;;;2.40;;
63286;SDS011;49410;55.708;37.522;2023-02-28T05:05:40;6.72;;;2.13;;
63286;SDS011;49410;55.708;37.522;2023-02-28T05:08:06;5.78;;;2.38;;
63286;SDS011;49410;55.708;37.522;2023-02-28T05:10:31;6.65;;;2.35;;
63286;SDS011;49410;55.708;37.522;2023-02-28T05:12:57;13.32;;;3.13;;
63286;SDS011;49410;55.708;37.522;2023-02-28T05:15:23;6.10;;;2.95;;
63286;SDS011;49410;55.708;37.522;2023-02-28T05:17:49;5.63;;;2.17;;
63286;SDS011;49410;55.708;37.522;2023-02-28T05:20:14;7.63;;;2.42;;
63286;SDS011;49410;55.708;37.522;2023-02-28T05:22:40;6.43;;;2.17;;
63286;SDS011;49410;55.708;37.522;2023-02-28T05:25:08;6.85;;;2.58;;
63286;SDS011;49410;55.708;37.522;2023-02-28T05:27:37;8.68;;;2.88;;
63286;SDS011;49410;55.708;37.522;2023-02-28T05:30:03;5.43;;;2.20;;
63286;SDS011;49410;55.708;37.522;2023-02-28T05:32:31;8.45;;;2.60;;
63286;SDS011;49410;55.708;37.522;2023-02-28T05:34:56;7.90;;;2.92;;
63286;SDS011;49410;55.708;37.522;2023-02-28T05:37:22;9.65;;;2.60;;
63286;SDS011;49410;55.708;37.522;2023-02-28T05:39:47;8.00;;;2.38;;
63286;SDS011;49410;55.708;37.522;2023-02-28T05:42:13;11.15;;;2.70;;
63286;SDS011;49410;55.708;37.522;2023-02-28T05:44:38;7.25;;;2.60;;
63286;SDS011;49410;55.708;37.522;2023-02-28T05:47:04;4.65;;;2.25;;
63286;SDS011;49410;55.708;37.522;2023-02-28T05:49:29;5.07;;;1.60;;
63286;SDS011;49410;55.708;37.522;2023-02-28T05:51:55;5.93;;;2.13;;
63286;SDS011;49410;55.708;37.522;2023-02-28T05:54:20;9.80;;;2.78;;
63286;SDS011;49410;55.708;37.522;2023-02-28T05:56:45;6.35;;;2.60;;
63286;SDS011;49410;55.708;37.522;2023-02-28T05:59:11;6.45;;;2.28;;
63286;SDS011;49410;55.708;37.522;2023-02-28T06:01:38;7.13;;;2.55;;
63286;SDS011;49410;55.708;37.522;2023-02-28T06:04:07;8.48;;;2.70;;
63286;SDS011;49410;55.708;37.522;2023-02-28T06:06:34;7.93;;;2.60;;
63286;SDS011;49410;55.708;37.522;2023-02-28T06:09:01;9.00;;;2.78;;
63286;SDS011;49410;55.708;37.522;2023-02-28T06:11:27;9.30;;;2.85;;
63286;SDS011;49410;55.708;37.522;2023-02-28T06:13:56;6.90;;;2.33;;
63286;SDS011;49410;55.708;37.522;2023-02-28T06:16:24;6.07;;;2.20;;
63286;SDS011;49410;55.708;37.522;2023-02-28T06:18:49;7.28;;;2.70;;
63286;SDS011;49410;55.708;37.522;2023-02-28T06:21:15;8.73;;;3.22;;
63286;SDS011;49410;55.708;37.522;2023-02-28T06:23:40;7.60;;;2.95;;
63286;SDS011;49410;55.708;37.522;2023-02-28T06:26:06;6.32;;;2.20;;
63286;SDS011;49410;55.708;37.522;2023-02-28T06:28:33;8.52;;;2.65;;
63286;SDS011;49410;55.708;37.522;2023-02-28T06:33:23;6.13;;;2.55;;
63286;SDS011;49410;55.708;37.522;2023-02-28T06:35:50;6.32;;;2.55;;
63286;SDS011;49410;55.708;37.522;2023-02-28T06:40:41;6.97;;;2.35;;
63286;SDS011;49410;55.708;37.522;2023-02-28T06:45:32;6.18;;;2.10;;
63286;SDS011;49410;55.708;37.522;2023-02-28T06:47:58;7.78;;;2.40;;
63286;SDS011;49410;55.708;37.522;2023-02-28T06:50:25;9.35;;;2.95;;
63286;SDS011;49410;55.708;37.522;2023-02-28T06:52:52;7.03;;;2.60;;
63286;SDS011;49410;55.708;37.522;2023-02-28T06:55:19;8.57;;;2.90;;
63286;SDS011;49410;55.708;37.522;2023-02-28T07:00:10;6.40;;;2.58;;
63286;SDS011;49410;55.708;37.522;2023-02-28T07:02:37;7.50;;;2.88;;
63286;SDS011;49410;55.708;37.522;2023-02-28T07:07:29;8.02;;;3.00;;
63286;SDS011;49410;55.708;37.522;2023-02-28T07:12:20;6.45;;;2.35;;
63286;SDS011;49410;55.708;37.522;2023-02-28T07:17:11;5.80;;;2.25;;
63286;SDS011;49410;55.708;37.522;2023-02-28T07:22:03;8.27;;;2.83;;
63286;SDS011;49410;55.708;37.522;2023-02-28T07:24:29;6.05;;;2.42;;
63286;SDS011;49410;55.708;37.522;2023-02-28T07:29:21;6.18;;;2.20;;
63286;SDS011;49410;55.708;37.522;2023-02-28T07:34:12;7.28;;;2.70;;
63286;SDS011;49410;55.708;37.522;2023-02-28T07:36:39;9.20;;;3.33;;
63286;SDS011;49410;55.708;37.522;2023-02-28T07:41:30;10.55;;;2.70;;
63286;SDS011;49410;55.708;37.522;2023-02-28T07:43:58;7.15;;;3.03;;
63286;SDS011;49410;55.708;37.522;2023-02-28T07:48:50;8.18;;;2.45;;
63286;SDS011;49410;55.708;37.522;2023-02-28T07:51:16;7.40;;;2.53;;
63286;SDS011;49410;55.708;37.522;2023-02-28T07:56:44;6.50;;;2.22;;
63286;SDS011;49410;55.708;37.522;2023-02-28T08:01:35;9.07;;;3.10;;
63286;SDS011;49410;55.708;37.522;2023-02-28T08:06:26;7.80;;;2.53;;
63286;SDS011;49410;55.708;37.522;2023-02-28T08:11:18;8.25;;;2.65;;
63286;SDS011;49410;55.708;37.522;2023-02-28T08:13:44;7.90;;;2.92;;
63286;SDS011;49410;55.708;37.522;2023-02-28T08:16:16;9.90;;;2.92;;
63286;SDS011;49410;55.708;37.522;2023-02-28T08:19:03;8.02;;;2.70;;
63286;SDS011;49410;55.708;37.522;2023-02-28T08:21:29;8.98;;;2.67;;
63286;SDS011;49410;55.708;37.522;2023-02-28T08:26:22;7.97;;;2.97;;
63286;SDS011;49410;55.708;37.522;2023-02-28T08:28:48;7.72;;;2.88;;
63286;SDS011;49410;55.708;37.522;2023-02-28T08:31:14;11.27;;;2.50;;
63286;SDS011;49410;55.708;37.522;2023-02-28T08:33:41;6.60;;;2.35;;
63286;SDS011;49410;55.708;37.522;2023-02-28T08:36:09;9.88;;;3.40;;
63286;SDS011;49410;55.708;37.522;2023-02-28T08:38:36;8.63;;;3.72;;
63286;SDS011;49410;55.708;37.522;2023-02-28T08:41:03;7.70;;;2.70;;
63286;SDS011;49410;55.708;37.522;2023-02-28T08:43:32;8.05;;;3.00;;
63286;SDS011;49410;55.708;37.522;2023-02-28T08:45:58;9.20;;;2.92;;
63286;SDS011;49410;55.708;37.522;2023-02-28T08:48:25;8.55;;;3.00;;
63286;SDS011;49410;55.708;37.522;2023-02-28T08:50:55;8.35;;;3.03;;
63286;SDS011;49410;55.708;37.522;2023-02-28T08:53:29;7.07;;;3.15;;
63286;SDS011;49410;55.708;37.522;2023-02-28T08:56:04;7.80;;;2.75;;
63286;SDS011;49410;55.708;37.522;2023-02-28T08:58:32;10.13;;;3.35;;
63286;SDS011;49410;55.708;37.522;2023-02-28T09:00:59;6.55;;;2.47;;
63286;SDS011;49410;55.708;37.522;2023-02-28T09:03:25;8.82;;;3.22;;
63286;SDS011;49410;55.708;37.522;2023-02-28T09:05:59;8.75;;;2.72;;
63286;SDS011;49410;55.708;37.522;2023-02-28T09:08:26;8.68;;;2.70;;
63286;SDS011;49410;55.708;37.522;2023-02-28T09:10:54;6.68;;;2.42;;
63286;SDS011;49410;55.708;37.522;2023-02-28T09:13:22;5.85;;;2.28;;
63286;SDS011;49410;55.708;37.522;2023-02-28T09:15:48;5.70;;;2.00;;
63286;SDS011;49410;55.708;37.522;2023-02-28T09:18:13;7.45;;;2.28;;
63286;SDS011;49410;55.708;37.522;2023-02-28T09:23:06;5.63;;;2.05;;
63286;SDS011;49410;55.708;37.522;2023-02-28T09:25:32;6.20;;;2.20;;
63286;SDS011;49410;55.708;37.522;2023-02-28T09:27:58;7.05;;;2.28;;
63286;SDS011;49410;55.708;37.522;2023-02-28T09:30:23;8.32;;;2.60;;
63286;SDS011;49410;55.708;37.522;2023-02-28T09:32:49;6.93;;;2.15;;
63286;SDS011;49410;55.708;37.522;2023-02-28T09:35:20;5.88;;;2.13;;
63286;SDS011;49410;55.708;37.522;2023-02-28T09:37:48;6.22;;;2.10;;
63286;SDS011;49410;55.708;37.522;2023-02-28T09:40:14;6.90;;;2.03;;
63286;SDS011;49410;55.708;37.522;2023-02-28T09:42:44;7.13;;;2.03;;
63286;SDS011;49410;55.708;37.522;2023-02-28T09:45:21;6.55;;;2.42;;
63286;SDS011;49410;55.708;37.522;2023-02-28T09:48:01;5.32;;;2.15;;
63286;SDS011;49410;55.708;37.522;2023-02-28T09:50:46;6.93;;;2.83;;
63286;SDS011;49410;55.708;37.522;2023-02-28T09:55:44;7.03;;;2.30;;
63286;SDS011;49410;55.708;37.522;2023-02-28T09:58:32;6.60;;;1.90;;
63286;SDS011;49410;55.708;37.522;2023-02-28T10:04:23;6.13;;;1.85;;
63286;SDS011;49410;55.708;37.522;2023-02-28T10:07:23;8.25;;;2.35;;
63286;SDS011;49410;55.708;37.522;2023-02-28T10:10:10;6.70;;;2.33;;
63286;SDS011;49410;55.708;37.522;2023-02-28T10:13:00;7.18;;;2.05;;
63286;SDS011;49410;55.708;37.522;2023-02-28T10:15:31;6.30;;;1.70;;
63286;SDS011;49410;55.708;37.522;2023-02-28T10:18:03;5.70;;;1.98;;
63286;SDS011;49410;55.708;37.522;2023-02-28T10:20:35;5.47;;;2.17;;
63286;SDS011;49410;55.708;37.522;2023-02-28T10:26:00;9.05;;;2.65;;
63286;SDS011;49410;55.708;37.522;2023-02-28T10:28:33;6.60;;;1.90;;
63286;SDS011;49410;55.708;37.522;2023-02-28T10:30:59;5.78;;;1.98;;
63286;SDS011;49410;55.708;37.522;2023-02-28T10:35:55;5.90;;;2.20;;
63286;SDS011;49410;55.708;37.522;2023-02-28T10:38:24;5.72;;;2.03;;
63286;SDS011;49410;55.708;37.522;2023-02-28T10:44:20;7.22;;;2.25;;
63286;SDS011;49410;55.708;37.522;2023-02-28T10:46:46;5.70;;;2.05;;
63286;SDS011;49410;55.708;37.522;2023-02-28T10:49:15;6.65;;;2.53;;
63286;SDS011;49410;55.708;37.522;2023-02-28T10:51:47;7.00;;;2.45;;
63286;SDS011;49410;55.708;37.522;2023-02-28T10:54:33;6.97;;;2.42;;
63286;SDS011;49410;55.708;37.522;2023-02-28T10:57:17;6.75;;;2.58;;
63286;SDS011;49410;55.708;37.522;2023-02-28T11:00:05;7.63;;;2.42;;
63286;SDS011;49410;55.708;37.522;2023-02-28T11:02:47;5.72;;;2.10;;
63286;SDS011;49410;55.708;37.522;2023-02-28T11:05:29;8.35;;;2.80;;
63286;SDS011;49410;55.708;37.522;2023-02-28T11:07:59;6.88;;;2.53;;
63286;SDS011;49410;55.708;37.522;2023-02-28T11:10:43;5.90;;;2.20;;
63286;SDS011;49410;55.708;37.522;2023-02-28T11:13:17;6.57;;;2.60;;
63286;SDS011;49410;55.708;37.522;2023-02-28T11:15:52;7.18;;;2.40;;
63286;SDS011;49410;55.708;37.522;2023-02-28T11:20:56;9.10;;;2.60;;
63286;SDS011;49410;55.708;37.522;2023-02-28T11:23:28;8.07;;;3.13;;
63286;SDS011;49410;55.708;37.522;2023-02-28T11:25:59;6.75;;;2.58;;
63286;SDS011;49410;55.708;37.522;2023-02-28T11:28:27;9.10;;;2.47;;
63286;SDS011;49410;55.708;37.522;2023-02-28T11:36:16;6.65;;;2.50;;
63286;SDS011;49410;55.708;37.522;2023-02-28T11:38:44;7.90;;;2.67;;
63286;SDS011;49410;55.708;37.522;2023-02-28T11:47:29;8.00;;;2.38;;
63286;SDS011;49410;55.708;37.522;2023-02-28T11:52:40;7.63;;;2.70;;
63286;SDS011;49410;55.708;37.522;2023-02-28T11:57:49;7.03;;;2.58;;
63286;SDS011;49410;55.708;37.522;2023-02-28T12:28:48;8.05;;;2.95;;
63286;SDS011;49410;55.708;37.522;2023-02-28T12:31:28;7.85;;;3.17;;
63286;SDS011;49410;55.708;37.522;2023-02-28T12:34:03;8.90;;;3.15;;
63286;SDS011;49410;55.708;37.522;2023-02-28T12:36:32;8.98;;;3.50;;
63286;SDS011;49410;55.708;37.522;2023-02-28T12:41:41;6.55;;;2.97;;
63286;SDS011;49410;55.708;37.522;2023-02-28T12:44:12;6.57;;;2.60;;
63286;SDS011;49410;55.708;37.522;2023-02-28T12:46:48;6.43;;;2.55;;
63286;SDS011;49410;55.708;37.522;2023-02-28T12:49:25;8.10;;;2.90;;
63286;SDS011;49410;55.708;37.522;2023-02-28T12:51:57;6.88;;;2.47;;
63286;SDS011;49410;55.708;37.522;2023-02-28T13:02:19;7.55;;;3.03;;
63286;SDS011;49410;55.708;37.522;2023-02-28T13:10:11;7.20;;;2.70;;
63286;SDS011;49410;55.708;37.522;2023-02-28T13:12:47;4.90;;;2.05;;
63286;SDS011;49410;55.708;37.522;2023-02-28T13:17:50;8.63;;;1.88;;
63286;SDS011;49410;55.708;37.522;2023-02-28T13:23:56;7.93;;;2.58;;
63286;SDS011;49410;55.708;37.522;2023-02-28T13:26:12;6.32;;;2.47;;
63286;SDS011;49410;55.708;37.522;2023-02-28T13:31:22;5.97;;;2.38;;
63286;SDS011;49410;55.708;37.522;2023-02-28T13:38:55;5.95;;;2.40;;
63286;SDS011;49410;55.708;37.522;2023-02-28T13:41:42;6.95;;;2.60;;
63286;SDS011;49410;55.708;37.522;2023-02-28T13:44:13;7.70;;;2.90;;
63286;SDS011;49410;55.708;37.522;2023-02-28T13:49:19;5.88;;;2.38;;
63286;SDS011;49410;55.708;37.522;2023-02-28T13:51:45;7.35;;;2.67;;
63286;SDS011;49410;55.708;37.522;2023-02-28T14:02:52;6.40;;;2.78;;
63286;SDS011;49410;55.708;37.522;2023-02-28T14:05:33;7.25;;;2.50;;
63286;SDS011;49410;55.708;37.522;2023-02-28T14:08:21;6.53;;;2.70;;
63286;SDS011;49410;55.708;37.522;2023-02-28T14:10:49;7.03;;;2.60;;
63286;SDS011;49410;55.708;37.522;2023-02-28T14:16:15;6.80;;;2.97;;
63286;SDS011;49410;55.708;37.522;2023-02-28T14:18:55;6.57;;;2.88;;
63286;SDS011;49410;55.708;37.522;2023-02-28T14:21:31;6.75;;;2.58;;
63286;SDS011;49410;55.708;37.522;2023-02-28T14:29:46;7.85;;;2.80;;
63286;SDS011;49410;55.708;37.522;2023-02-28T14:32:37;9.57;;;3.03;;
63286;SDS011;49410;55.708;37.522;2023-02-28T14:38:05;7.38;;;2.85;;
63286;SDS011;49410;55.708;37.522;2023-02-28T14:40:38;8.60;;;2.95;;
63286;SDS011;49410;55.708;37.522;2023-02-28T14:43:06;7.38;;;2.67;;
63286;SDS011;49410;55.708;37.522;2023-02-28T14:45:43;6.80;;;2.58;;
63286;SDS011;49410;55.708;37.522;2023-02-28T14:48:14;6.68;;;2.92;;
63286;SDS011;49410;55.708;37.522;2023-02-28T14:50:42;6.80;;;2.58;;
63286;SDS011;49410;55.708;37.522;2023-02-28T14:53:16;6.85;;;2.70;;
63286;SDS011;49410;55.708;37.522;2023-02-28T14:55:45;6.45;;;2.20;;
63286;SDS011;49410;55.708;37.522;2023-02-28T14:58:19;7.95;;;3.28;;
63286;SDS011;49410;55.708;37.522;2023-02-28T15:00:51;8.50;;;3.63;;
63286;SDS011;49410;55.708;37.522;2023-02-28T15:05:56;12.40;;;4.32;;
63286;SDS011;49410;55.708;37.522;2023-02-28T15:08:24;7.63;;;3.22;;
63286;SDS011;49410;55.708;37.522;2023-02-28T15:10:53;9.90;;;3.75;;
63286;SDS011;49410;55.708;37.522;2023-02-28T15:13:35;8.30;;;3.17;;
63286;SDS011;49410;55.708;37.522;2023-02-28T15:16:30;8.00;;;3.20;;
63286;SDS011;49410;55.708;37.522;2023-02-28T15:21:38;6.05;;;2.45;;
63286;SDS011;49410;55.708;37.522;2023-02-28T15:26:51;8.80;;;2.65;;
63286;SDS011;49410;55.708;37.522;2023-02-28T15:29:21;6.68;;;2.65;;
63286;SDS011;49410;55.708;37.522;2023-02-28T15:31:50;10.70;;;2.60;;
63286;SDS011;49410;55.708;37.522;2023-02-28T15:34:42;9.20;;;3.45;;
63286;SDS011;49410;55.708;37.522;2023-02-28T15:43:04;6.72;;;2.40;;
63286;SDS011;49410;55.708;37.522;2023-02-28T15:45:44;6.18;;;2.20;;
63286;SDS011;49410;55.708;37.522;2023-02-28T15:48:16;6.53;;;2.58;;
63286;SDS011;49410;55.708;37.522;2023-02-28T15:50:48;10.00;;;2.47;;
63286;SDS011;49410;55.708;37.522;2023-02-28T15:53:20;7.25;;;2.80;;
63286;SDS011;49410;55.708;37.522;2023-02-28T15:55:55;9.85;;;2.95;;
63286;SDS011;49410;55.708;37.522;2023-02-28T15:58:26;6.93;;;2.88;;
63286;SDS011;49410;55.708;37.522;2023-02-28T16:01:07;8.10;;;3.22;;
63286;SDS011;49410;55.708;37.522;2023-02-28T16:03:48;8.48;;;2.65;;
63286;SDS011;49410;55.708;37.522;2023-02-28T16:08:42;6.55;;;2.45;;
63286;SDS011;49410;55.708;37.522;2023-02-28T16:11:08;9.45;;;2.47;;
63286;SDS011;49410;55.708;37.522;2023-02-28T16:13:35;6.47;;;2.42;;
63286;SDS011;49410;55.708;37.522;2023-02-28T16:16:02;6.45;;;2.30;;
63286;SDS011;49410;55.708;37.522;2023-02-28T16:18:28;5.15;;;2.00;;
63286;SDS011;49410;55.708;37.522;2023-02-28T16:20:53;5.00;;;1.92;;
63286;SDS011;49410;55.708;37.522;2023-02-28T16:23:19;6.40;;;2.33;;
63286;SDS011;49410;55.708;37.522;2023-02-28T16:25:44;5.70;;;2.40;;
63286;SDS011;49410;55.708;37.522;2023-02-28T16:28:24;6.07;;;2.10;;
63286;SDS011;49410;55.708;37.522;2023-02-28T16:30:56;5.60;;;1.98;;
63286;SDS011;49410;55.708;37.522;2023-02-28T16:33:22;5.90;;;2.47;;
63286;SDS011;49410;55.708;37.522;2023-02-28T16:35:47;6.05;;;2.58;;
63286;SDS011;49410;55.708;37.522;2023-02-28T16:38:14;7.25;;;2.63;;
63286;SDS011;49410;55.708;37.522;2023-02-28T16:40:39;6.63;;;2.45;;
63286;SDS011;49410;55.708;37.522;2023-02-28T16:43:07;6.25;;;2.65;;
63286;SDS011;49410;55.708;37.522;2023-02-28T16:45:38;6.40;;;2.50;;
63286;SDS011;49410;55.708;37.522;2023-02-28T16:48:04;4.85;;;2.10;;
63286;SDS011;49410;55.708;37.522;2023-02-28T16:50:30;6.47;;;2.20;;
63286;SDS011;49410;55.708;37.522;2023-02-28T16:52:57;7.85;;;2.65;;
63286;SDS011;49410;55.708;37.522;2023-02-28T16:55:23;7.32;;;2.42;;
63286;SDS011;49410;55.708;37.522;2023-02-28T16:57:58;7.03;;;2.30;;
63286;SDS011;49410;55.708;37.522;2023-02-28T17:00:24;6.38;;;2.30;;
63286;SDS011;49410;55.708;37.522;2023-02-28T17:02:52;5.32;;;1.92;;
63286;SDS011;49410;55.708;37.522;2023-02-28T17:05:18;9.65;;;2.25;;
63286;SDS011;49410;55.708;37.522;2023-02-28T17:07:45;4.15;;;1.83;;
63286;SDS011;49410;55.708;37.522;2023-02-28T17:10:13;5.53;;;2.00;;
63286;SDS011;49410;55.708;37.522;2023-02-28T17:12:40;5.45;;;2.03;;
63286;SDS011;49410;55.708;37.522;2023-02-28T17:15:06;4.82;;;1.63;;
63286;SDS011;49410;55.708;37.522;2023-02-28T17:17:32;5.72;;;2.10;;
63286;SDS011;49410;55.708;37.522;2023-02-28T17:19:58;5.35;;;2.03;;
63286;SDS011;49410;55.708;37.522;2023-02-28T17:22:24;5.30;;;2.00;;
63286;SDS011;49410;55.708;37.522;2023-02-28T17:24:51;5.60;;;1.48;;
63286;SDS011;49410;55.708;37.522;2023-02-28T17:27:20;5.07;;;1.85;;
63286;SDS011;49410;55.708;37.522;2023-02-28T17:29:46;4.75;;;1.55;;
63286;SDS011;49410;55.708;37.522;2023-02-28T17:32:12;4.75;;;1.55;;
63286;SDS011;49410;55.708;37.522;2023-02-28T17:34:37;4.45;;;1.25;;
63286;SDS011;49410;55.708;37.522;2023-02-28T17:37:03;4.45;;;1.30;;
63286;SDS011;49410;55.708;37.522;2023-02-28T17:39:29;3.42;;;1.13;;
63286;SDS011;49410;55.708;37.522;2023-02-28T17:41:58;4.78;;;1.13;;
63286;SDS011;49410;55.708;37.522;2023-02-28T17:44:23;2.00;;;0.73;;
63286;SDS011;49410;55.708;37.522;2023-02-28T17:46:50;2.28;;;0.80;;
63286;SDS011;49410;55.708;37.522;2023-02-28T17:49:18;2.53;;;0.98;;
63286;SDS011;49410;55.708;37.522;2023-02-28T17:51:44;3.08;;;1.38;;
63286;SDS011;49410;55.708;37.522;2023-02-28T17:54:09;5.13;;;1.70;;
63286;SDS011;49410;55.708;37.522;2023-02-28T17:56:35;2.72;;;1.05;;
63286;SDS011;49410;55.708;37.522;2023-02-28T17:59:01;3.58;;;1.25;;
63286;SDS011;49410;55.708;37.522;2023-02-28T18:01:27;3.88;;;1.10;;
63286;SDS011;49410;55.708;37.522;2023-02-28T18:03:53;3.15;;;1.13;;
63286;SDS011;49410;55.708;37.522;2023-02-28T18:06:21;4.65;;;1.02;;
63286;SDS011;49410;55.708;37.522;2023-02-28T18:08:49;2.55;;;0.88;;
63286;SDS011;49410;55.708;37.522;2023-02-28T18:11:17;2.67;;;0.88;;
63286;SDS011;49410;55.708;37.522;2023-02-28T18:13:44;3.03;;;0.80;;
63286;SDS011;49410;55.708;37.522;2023-02-28T18:16:10;2.38;;;0.80;;
63286;SDS011;49410;55.708;37.522;2023-02-28T18:18:36;3.20;;;1.00;;
63286;SDS011;49410;55.708;37.522;2023-02-28T18:21:06;4.63;;;1.10;;
63286;SDS011;49410;55.708;37.522;2023-02-28T18:23:33;3.10;;;0.88;;
63286;SDS011;49410;55.708;37.522;2023-02-28T18:25:58;2.25;;;0.90;;
63286;SDS011;49410;55.708;37.522;2023-02-28T18:30:49;5.18;;;0.93;;
63286;SDS011;49410;55.708;37.522;2023-02-28T18:33:15;2.10;;;0.88;;
63286;SDS011;49410;55.708;37.522;2023-02-28T18:38:14;2.67;;;0.80;;